createdAt,value
2023-05-21T00:14:58.036Z,83.14
2023-05-21T00:22:34.413Z,84.21
2023-05-21T00:30:09.539Z,83.93
2023-05-21T00:37:46.073Z,84.49
2023-05-21T00:45:20.581Z,88.20
2023-05-21T00:52:55.935Z,89.72
2023-05-21T01:00:30.020Z,93.85
2023-05-21T01:15:59.549Z,92.44
2023-05-21T01:23:35.672Z,94.35
2023-05-21T01:31:23.715Z,92.80
2023-05-21T01:39:03.971Z,97.84
2023-05-21T01:46:40.193Z,99.61
2023-05-21T01:54:15.959Z,100.00
2023-05-21T02:01:50.530Z,100.00
2023-05-21T02:09:25.852Z,100.00
2023-05-21T02:24:52.371Z,100.00
2023-05-21T02:32:26.317Z,100.00
2023-05-21T02:40:02.520Z,100.00
2023-05-21T02:47:37.446Z,100.00
2023-05-21T02:55:12.966Z,100.00
2023-05-21T03:02:47.124Z,100.00
2023-05-21T03:10:22.629Z,100.00
2023-05-21T03:17:57.223Z,100.00
2023-05-21T03:25:32.740Z,100.00
2023-05-21T03:33:06.939Z,100.00
2023-05-21T03:40:42.384Z,100.00
2023-05-21T03:48:16.420Z,100.00
2023-05-21T03:55:55.513Z,100.00
2023-05-21T04:03:29.858Z,100.00
2023-05-21T04:11:05.264Z,100.00
2023-05-21T04:18:39.360Z,100.00
2023-05-21T04:26:16.225Z,100.00
2023-05-21T04:33:50.951Z,100.00
2023-05-21T04:41:26.219Z,100.00
2023-05-21T04:49:02.842Z,100.00
2023-05-21T04:56:38.025Z,100.00
2023-05-21T05:04:12.442Z,100.00
2023-05-21T05:11:47.637Z,100.00
2023-05-21T05:19:22.480Z,100.00
2023-05-21T05:26:57.706Z,100.00
2023-05-21T05:34:32.461Z,100.00
2023-05-21T05:42:07.850Z,100.00
2023-05-21T05:49:42.345Z,100.00
2023-05-21T05:57:17.819Z,100.00
2023-05-21T06:04:52.075Z,100.00
2023-05-21T06:12:27.798Z,100.00
2023-05-21T06:28:55.465Z,95.94
2023-05-21T06:44:23.080Z,89.65
2023-05-21T06:59:49.742Z,83.63
2023-05-21T07:07:23.622Z,76.64
2023-05-21T07:14:59.498Z,72.66
2023-05-21T07:22:33.396Z,71.01
2023-05-21T07:30:11.157Z,68.23
2023-05-21T07:45:38.129Z,64.25
2023-05-21T08:01:04.719Z,60.17
2023-05-21T08:08:38.654Z,58.16
2023-05-21T08:16:13.865Z,55.96
2023-05-21T08:23:47.687Z,55.70
2023-05-21T08:31:22.922Z,54.85
2023-05-21T08:38:56.783Z,51.82
2023-05-21T08:46:34.987Z,50.84
2023-05-21T08:54:39.934Z,49.06
2023-05-21T09:02:15.473Z,48.53
2023-05-21T09:09:56.295Z,47.14
2023-05-21T09:17:31.430Z,47.06
2023-05-21T09:25:09.399Z,46.74
2023-05-21T09:32:46.133Z,45.17
2023-05-21T09:40:21.290Z,44.57
2023-05-21T09:47:57.931Z,42.10
2023-05-21T09:55:32.116Z,41.97
2023-05-21T10:03:11.038Z,40.21
2023-05-21T10:10:45.942Z,38.00
2023-05-21T10:18:23.418Z,39.09
2023-05-21T10:25:57.926Z,38.14
2023-05-21T10:33:33.536Z,37.09
2023-05-21T10:50:30.864Z,36.79
2023-05-21T10:58:37.280Z,36.20
2023-05-21T11:06:12.589Z,35.51
2023-05-21T11:13:48.763Z,35.34
2023-05-21T11:21:26.256Z,34.85
2023-05-21T11:29:09.662Z,35.22
2023-05-21T11:36:47.074Z,34.76
2023-05-21T11:44:39.175Z,34.81
2023-05-21T11:52:15.197Z,35.27
2023-05-21T11:59:51.273Z,34.85
2023-05-21T12:07:28.510Z,34.36
2023-05-21T12:15:03.085Z,34.80
2023-05-21T12:22:43.057Z,34.39
2023-05-21T12:30:16.905Z,34.75
2023-05-21T12:37:52.220Z,34.35
2023-05-21T12:45:26.532Z,34.20
2023-05-21T12:53:01.697Z,34.78
2023-05-21T13:00:35.955Z,34.37
2023-05-21T13:08:13.764Z,33.65
2023-05-21T13:15:47.634Z,33.75
2023-05-21T13:23:22.728Z,34.56
2023-05-21T13:30:56.685Z,34.52
2023-05-21T13:38:31.911Z,34.05
2023-05-21T13:46:05.968Z,33.75
2023-05-21T13:53:41.104Z,33.20
2023-05-21T14:01:14.905Z,34.36
2023-05-21T14:08:50.036Z,33.67
2023-05-21T14:16:24.936Z,33.88
2023-05-21T14:24:00.191Z,34.00
2023-05-21T14:40:28.759Z,34.33
2023-05-21T14:48:03.199Z,34.64
2023-05-21T14:55:38.840Z,34.14
2023-05-21T15:03:13.521Z,34.25
2023-05-21T15:10:48.767Z,34.43
2023-05-21T15:18:24.606Z,34.34
2023-05-21T15:25:59.817Z,34.60
2023-05-21T15:33:33.597Z,34.15
2023-05-21T15:41:08.921Z,34.54
2023-05-21T15:48:42.737Z,34.26
2023-05-21T16:05:11.195Z,34.15
2023-05-21T16:12:45.106Z,34.47
2023-05-21T16:20:21.758Z,34.47
2023-05-21T16:27:57.569Z,33.92
2023-05-21T16:35:32.970Z,33.87
2023-05-21T16:43:07.176Z,34.34
2023-05-21T16:50:42.375Z,34.04
2023-05-21T16:58:16.431Z,34.38
2023-05-21T17:05:52.932Z,34.26
2023-05-21T17:13:26.812Z,34.06
2023-05-21T17:21:02.270Z,34.22
2023-05-21T17:28:36.535Z,34.57
2023-05-21T17:36:11.754Z,35.07
2023-05-21T17:43:45.614Z,36.45
2023-05-21T17:51:21.049Z,36.03
2023-05-21T17:58:55.099Z,35.96
2023-05-21T18:06:31.258Z,36.28
2023-05-21T18:14:05.153Z,36.00
2023-05-21T18:21:40.523Z,35.90
2023-05-21T18:29:15.121Z,36.04
2023-05-21T18:36:50.689Z,35.88
2023-05-21T18:44:24.503Z,36.04
2023-05-21T18:51:59.808Z,36.14
2023-05-21T18:59:35.328Z,36.30
2023-05-21T19:07:10.954Z,36.42
2023-05-21T19:14:45.187Z,36.38
2023-05-21T19:22:20.495Z,36.40
2023-05-21T19:29:54.611Z,36.20
2023-05-21T19:37:29.705Z,36.43
2023-05-21T19:45:04.332Z,36.70
2023-05-21T19:52:39.997Z,36.77
2023-05-21T20:00:15.843Z,37.14
2023-05-21T20:07:51.056Z,37.19
2023-05-21T20:15:24.888Z,37.45
2023-05-21T20:23:03.145Z,37.09
2023-05-21T20:30:53.400Z,37.09
2023-05-21T20:38:32.381Z,37.20
2023-05-21T20:46:06.298Z,37.15
2023-05-21T20:53:41.515Z,37.13
2023-05-21T21:01:17.593Z,36.94
2023-05-21T21:08:55.502Z,36.71
2023-05-21T21:25:24.330Z,36.79
2023-05-21T21:32:58.505Z,36.83
2023-05-21T21:40:33.849Z,37.07
2023-05-21T21:48:08.355Z,37.33
2023-05-21T21:55:43.617Z,37.44
2023-05-21T22:03:17.386Z,37.83
2023-05-21T22:10:52.593Z,38.21
2023-05-21T22:18:39.647Z,38.48
2023-05-21T22:26:16.044Z,39.00
2023-05-21T22:33:49.919Z,39.53
2023-05-21T22:41:25.418Z,40.08
2023-05-21T22:49:00.399Z,40.51
2023-05-21T22:56:36.162Z,40.85
2023-05-21T23:04:10.595Z,40.94
2023-05-21T23:11:45.891Z,41.03
2023-05-21T23:19:19.944Z,41.15
2023-05-21T23:26:56.791Z,41.54
2023-05-21T23:34:30.871Z,41.51
2023-05-21T23:42:07.042Z,41.55
2023-05-21T23:49:40.974Z,41.70
2023-05-21T23:57:16.284Z,41.64
